sensor_id;sensor_type;location;lat;lon;timestamp;temperature;humidity
12223;DHT22;6174;49.058;8.524;2023-04-25T05:02:40;8.80;99.90
12223;DHT22;6174;49.058;8.524;2023-04-25T05:05:07;8.80;99.90
12223;DHT22;6174;49.058;8.524;2023-04-25T05:07:34;8.80;99.90
12223;DHT22;6174;49.058;8.524;2023-04-25T05:10:01;8.90;99.90
12223;DHT22;6174;49.058;8.524;2023-04-25T05:12:28;8.80;99.90
12223;DHT22;6174;49.058;8.524;2023-04-25T05:14:54;8.80;99.90
12223;DHT22;6174;49.058;8.524;2023-04-25T05:17:21;8.80;99.90
12223;DHT22;6174;49.058;8.524;2023-04-25T05:19:49;8.90;99.90
12223;DHT22;6174;49.058;8.524;2023-04-25T05:22:16;8.90;99.90
12223;DHT22;6174;49.058;8.524;2023-04-25T05:24:43;8.90;99.90
12223;DHT22;6174;49.058;8.524;2023-04-25T05:27:09;8.90;99.90
12223;DHT22;6174;49.058;8.524;2023-04-25T05:29:36;8.90;99.90
12223;DHT22;6174;49.058;8.524;2023-04-25T05:32:04;9.00;99.90
12223;DHT22;6174;49.058;8.524;2023-04-25T05:34:31;8.90;99.90
12223;DHT22;6174;49.058;8.524;2023-04-25T05:36:59;8.90;99.90
12223;DHT22;6174;49.058;8.524;2023-04-25T05:39:26;9.20;99.90
12223;DHT22;6174;49.058;8.524;2023-04-25T05:41:53;9.00;99.90
12223;DHT22;6174;49.058;8.524;2023-04-25T05:44:20;9.10;99.90
12223;DHT22;6174;49.058;8.524;2023-04-25T05:46:46;9.30;99.90
12223;DHT22;6174;49.058;8.524;2023-04-25T05:49:15;9.30;99.90
12223;DHT22;6174;49.058;8.524;2023-04-25T05:51:45;9.30;99.90
12223;DHT22;6174;49.058;8.524;2023-04-25T05:54:13;9.40;99.90
12223;DHT22;6174;49.058;8.524;2023-04-25T05:56:40;9.60;99.90
12223;DHT22;6174;49.058;8.524;2023-04-25T05:59:07;9.70;99.90
12223;DHT22;6174;49.058;8.524;2023-04-25T06:01:33;10.00;99.90
12223;DHT22;6174;49.058;8.524;2023-04-25T06:04:00;10.20;99.90
12223;DHT22;6174;49.058;8.524;2023-04-25T06:06:27;10.20;99.90
12223;DHT22;6174;49.058;8.524;2023-04-25T06:08:54;10.20;99.90
12223;DHT22;6174;49.058;8.524;2023-04-25T06:11:22;10.10;99.90
12223;DHT22;6174;49.058;8.524;2023-04-25T06:13:49;10.00;99.90
12223;DHT22;6174;49.058;8.524;2023-04-25T06:16:16;10.00;99.90
12223;DHT22;6174;49.058;8.524;2023-04-25T06:18:42;9.80;99.90
12223;DHT22;6174;49.058;8.524;2023-04-25T06:21:09;9.70;99.90
12223;DHT22;6174;49.058;8.524;2023-04-25T06:23:38;9.70;99.90
12223;DHT22;6174;49.058;8.524;2023-04-25T06:26:05;9.80;99.90
12223;DHT22;6174;49.058;8.524;2023-04-25T06:28:33;9.60;99.90
12223;DHT22;6174;49.058;8.524;2023-04-25T06:31:00;9.40;99.90
12223;DHT22;6174;49.058;8.524;2023-04-25T06:33:26;9.40;99.90
12223;DHT22;6174;49.058;8.524;2023-04-25T06:35:54;9.40;99.90
12223;DHT22;6174;49.058;8.524;2023-04-25T06:38:20;9.30;99.90
12223;DHT22;6174;49.058;8.524;2023-04-25T06:40:47;9.30;99.90
12223;DHT22;6174;49.058;8.524;2023-04-25T06:43:14;9.30;99.90
12223;DHT22;6174;49.058;8.524;2023-04-25T06:45:42;9.20;99.90
12223;DHT22;6174;49.058;8.524;2023-04-25T06:48:09;9.30;99.90
12223;DHT22;6174;49.058;8.524;2023-04-25T06:50:35;9.30;99.90
12223;DHT22;6174;49.058;8.524;2023-04-25T06:53:02;9.30;99.90
12223;DHT22;6174;49.058;8.524;2023-04-25T06:55:29;9.30;99.90
12223;DHT22;6174;49.058;8.524;2023-04-25T06:57:56;9.20;99.90
12223;DHT22;6174;49.058;8.524;2023-04-25T07:00:22;9.20;99.90
12223;DHT22;6174;49.058;8.524;2023-04-25T07:02:50;9.10;99.90
12223;DHT22;6174;49.058;8.524;2023-04-25T07:05:17;9.10;99.90
12223;DHT22;6174;49.058;8.524;2023-04-25T07:07:44;9.10;99.90
12223;DHT22;6174;49.058;8.524;2023-04-25T07:10:11;9.20;99.90
12223;DHT22;6174;49.058;8.524;2023-04-25T07:12:37;9.20;99.90
12223;DHT22;6174;49.058;8.524;2023-04-25T07:15:05;9.30;99.90
12223;DHT22;6174;49.058;8.524;2023-04-25T07:17:33;9.10;99.90
12223;DHT22;6174;49.058;8.524;2023-04-25T07:20:01;9.20;99.90
12223;DHT22;6174;49.058;8.524;2023-04-25T07:22:29;9.20;99.90
12223;DHT22;6174;49.058;8.524;2023-04-25T07:24:56;9.30;99.90
12223;DHT22;6174;49.058;8.524;2023-04-25T07:27:22;9.30;99.90
12223;DHT22;6174;49.058;8.524;2023-04-25T07:29:49;9.20;99.90
12223;DHT22;6174;49.058;8.524;2023-04-25T07:32:16;9.10;99.90
12223;DHT22;6174;49.058;8.524;2023-04-25T07:34:43;9.10;99.90
12223;DHT22;6174;49.058;8.524;2023-04-25T07:37:11;9.10;99.90
12223;DHT22;6174;49.058;8.524;2023-04-25T07:39:37;9.10;99.90
12223;DHT22;6174;49.058;8.524;2023-04-25T07:42:04;9.00;99.90
12223;DHT22;6174;49.058;8.524;2023-04-25T07:44:33;9.10;99.90
12223;DHT22;6174;49.058;8.524;2023-04-25T07:47:04;9.20;99.90
12223;DHT22;6174;49.058;8.524;2023-04-25T07:49:32;9.30;99.90
12223;DHT22;6174;49.058;8.524;2023-04-25T07:51:59;9.20;99.90
12223;DHT22;6174;49.058;8.524;2023-04-25T07:54:27;9.30;99.90
12223;DHT22;6174;49.058;8.524;2023-04-25T07:56:54;9.30;99.90
12223;DHT22;6174;49.058;8.524;2023-04-25T07:59:21;9.20;99.90
12223;DHT22;6174;49.058;8.524;2023-04-25T08:01:48;9.20;99.90
12223;DHT22;6174;49.058;8.524;2023-04-25T08:04:14;9.40;99.90
12223;DHT22;6174;49.058;8.524;2023-04-25T08:06:41;9.40;99.90
12223;DHT22;6174;49.058;8.524;2023-04-25T08:09:08;9.50;99.90
12223;DHT22;6174;49.058;8.524;2023-04-25T08:11:37;9.40;99.90
12223;DHT22;6174;49.058;8.524;2023-04-25T08:14:04;9.50;99.90
12223;DHT22;6174;49.058;8.524;2023-04-25T08:16:31;9.50;99.90
12223;DHT22;6174;49.058;8.524;2023-04-25T08:18:59;9.60;99.90
12223;DHT22;6174;49.058;8.524;2023-04-25T08:21:26;9.60;99.90
12223;DHT22;6174;49.058;8.524;2023-04-25T08:23:53;9.60;99.90
12223;DHT22;6174;49.058;8.524;2023-04-25T08:26:20;9.60;99.90
12223;DHT22;6174;49.058;8.524;2023-04-25T08:28:48;9.60;99.90
12223;DHT22;6174;49.058;8.524;2023-04-25T08:31:15;9.70;99.90
12223;DHT22;6174;49.058;8.524;2023-04-25T08:33:42;9.70;99.90
12223;DHT22;6174;49.058;8.524;2023-04-25T08:36:09;9.40;99.90
12223;DHT22;6174;49.058;8.524;2023-04-25T08:38:35;9.50;99.90
12223;DHT22;6174;49.058;8.524;2023-04-25T08:41:03;9.60;99.90
12223;DHT22;6174;49.058;8.524;2023-04-25T08:43:32;9.80;99.90
12223;DHT22;6174;49.058;8.524;2023-04-25T08:46:01;9.80;99.90
12223;DHT22;6174;49.058;8.524;2023-04-25T08:48:29;9.80;99.90
12223;DHT22;6174;49.058;8.524;2023-04-25T08:50:58;9.90;99.90
12223;DHT22;6174;49.058;8.524;2023-04-25T08:53:28;9.90;99.90
12223;DHT22;6174;49.058;8.524;2023-04-25T08:55:57;10.00;99.90
12223;DHT22;6174;49.058;8.524;2023-04-25T08:58:24;9.90;99.90
12223;DHT22;6174;49.058;8.524;2023-04-25T09:00:52;9.80;99.90
12223;DHT22;6174;49.058;8.524;2023-04-25T09:03:20;9.60;99.90
12223;DHT22;6174;49.058;8.524;2023-04-25T09:05:47;9.40;99.90
12223;DHT22;6174;49.058;8.524;2023-04-25T09:08:14;9.20;99.90
12223;DHT22;6174;49.058;8.524;2023-04-25T09:10:41;8.80;99.90
12223;DHT22;6174;49.058;8.524;2023-04-25T09:13:10;8.60;99.90
12223;DHT22;6174;49.058;8.524;2023-04-25T09:15:48;8.50;99.90
12223;DHT22;6174;49.058;8.524;2023-04-25T09:18:24;8.40;99.90
12223;DHT22;6174;49.058;8.524;2023-04-25T09:20:52;8.30;99.90
12223;DHT22;6174;49.058;8.524;2023-04-25T09:23:19;8.20;99.90
12223;DHT22;6174;49.058;8.524;2023-04-25T09:25:47;8.10;99.90
12223;DHT22;6174;49.058;8.524;2023-04-25T09:28:14;8.10;99.90
12223;DHT22;6174;49.058;8.524;2023-04-25T09:30:41;8.10;99.90
12223;DHT22;6174;49.058;8.524;2023-04-25T09:33:10;8.10;99.90
12223;DHT22;6174;49.058;8.524;2023-04-25T09:35:43;8.10;99.90
12223;DHT22;6174;49.058;8.524;2023-04-25T09:38:11;8.20;99.90
12223;DHT22;6174;49.058;8.524;2023-04-25T09:40:41;8.30;99.90
12223;DHT22;6174;49.058;8.524;2023-04-25T09:43:09;8.40;99.90
12223;DHT22;6174;49.058;8.524;2023-04-25T09:45:46;8.40;99.90
12223;DHT22;6174;49.058;8.524;2023-04-25T09:48:17;8.40;99.90
12223;DHT22;6174;49.058;8.524;2023-04-25T09:51:06;8.40;99.90
12223;DHT22;6174;49.058;8.524;2023-04-25T09:53:34;8.40;99.90
12223;DHT22;6174;49.058;8.524;2023-04-25T09:56:03;8.40;99.90
12223;DHT22;6174;49.058;8.524;2023-04-25T09:58:32;8.50;99.90
12223;DHT22;6174;49.058;8.524;2023-04-25T10:01:01;8.30;99.90
12223;DHT22;6174;49.058;8.524;2023-04-25T10:03:29;8.40;99.90
12223;DHT22;6174;49.058;8.524;2023-04-25T10:06:00;8.40;99.90
12223;DHT22;6174;49.058;8.524;2023-04-25T10:08:31;8.40;99.90
12223;DHT22;6174;49.058;8.524;2023-04-25T10:11:00;8.40;99.90
12223;DHT22;6174;49.058;8.524;2023-04-25T10:13:28;8.40;99.90
12223;DHT22;6174;49.058;8.524;2023-04-25T10:15:57;8.50;99.90
12223;DHT22;6174;49.058;8.524;2023-04-25T10:18:25;8.40;99.90
12223;DHT22;6174;49.058;8.524;2023-04-25T10:20:52;8.50;99.90
12223;DHT22;6174;49.058;8.524;2023-04-25T10:23:20;8.40;99.90
12223;DHT22;6174;49.058;8.524;2023-04-25T10:25:47;8.50;99.90
12223;DHT22;6174;49.058;8.524;2023-04-25T10:28:14;8.50;99.90
12223;DHT22;6174;49.058;8.524;2023-04-25T10:30:57;8.40;99.90
12223;DHT22;6174;49.058;8.524;2023-04-25T10:33:32;8.50;99.90
12223;DHT22;6174;49.058;8.524;2023-04-25T10:35:59;8.50;99.90
12223;DHT22;6174;49.058;8.524;2023-04-25T10:38:36;8.60;99.90
12223;DHT22;6174;49.058;8.524;2023-04-25T10:41:03;8.70;99.90
12223;DHT22;6174;49.058;8.524;2023-04-25T10:43:35;8.80;99.90
12223;DHT22;6174;49.058;8.524;2023-04-25T10:46:12;8.90;99.90
12223;DHT22;6174;49.058;8.524;2023-04-25T10:48:45;9.00;99.90
12223;DHT22;6174;49.058;8.524;2023-04-25T10:51:16;9.00;99.90
12223;DHT22;6174;49.058;8.524;2023-04-25T10:53:45;9.10;99.90
12223;DHT22;6174;49.058;8.524;2023-04-25T10:56:16;9.10;99.90
12223;DHT22;6174;49.058;8.524;2023-04-25T10:58:47;9.10;99.90
12223;DHT22;6174;49.058;8.524;2023-04-25T11:01:15;9.10;99.90
12223;DHT22;6174;49.058;8.524;2023-04-25T11:03:43;9.10;99.90
12223;DHT22;6174;49.058;8.524;2023-04-25T11:06:18;9.10;99.90
12223;DHT22;6174;49.058;8.524;2023-04-25T11:08:49;9.10;99.90
12223;DHT22;6174;49.058;8.524;2023-04-25T11:11:17;9.20;99.90
12223;DHT22;6174;49.058;8.524;2023-04-25T11:13:44;9.20;99.90
12223;DHT22;6174;49.058;8.524;2023-04-25T11:16:10;9.20;99.90
12223;DHT22;6174;49.058;8.524;2023-04-25T11:18:37;9.30;99.90
12223;DHT22;6174;49.058;8.524;2023-04-25T11:21:04;9.30;99.90
12223;DHT22;6174;49.058;8.524;2023-04-25T11:23:31;9.40;99.90
12223;DHT22;6174;49.058;8.524;2023-04-25T11:26:00;9.50;99.90
12223;DHT22;6174;49.058;8.524;2023-04-25T11:28:27;9.60;99.90
12223;DHT22;6174;49.058;8.524;2023-04-25T11:30:53;9.60;99.90
12223;DHT22;6174;49.058;8.524;2023-04-25T11:33:23;9.60;99.90
12223;DHT22;6174;49.058;8.524;2023-04-25T11:35:51;9.60;99.90
12223;DHT22;6174;49.058;8.524;2023-04-25T11:38:19;9.60;99.90
12223;DHT22;6174;49.058;8.524;2023-04-25T11:40:49;9.60;99.90
12223;DHT22;6174;49.058;8.524;2023-04-25T11:43:20;9.60;99.90
12223;DHT22;6174;49.058;8.524;2023-04-25T11:45:48;9.30;99.90
12223;DHT22;6174;49.058;8.524;2023-04-25T11:48:14;9.20;99.90
12223;DHT22;6174;49.058;8.524;2023-04-25T11:50:41;9.10;99.90
12223;DHT22;6174;49.058;8.524;2023-04-25T11:53:08;9.20;99.90
12223;DHT22;6174;49.058;8.524;2023-04-25T11:55:36;9.10;99.90
12223;DHT22;6174;49.058;8.524;2023-04-25T11:58:04;9.30;99.90
12223;DHT22;6174;49.058;8.524;2023-04-25T12:00:32;9.40;99.90
12223;DHT22;6174;49.058;8.524;2023-04-25T12:02:59;9.30;99.90
12223;DHT22;6174;49.058;8.524;2023-04-25T12:05:29;9.30;99.90
12223;DHT22;6174;49.058;8.524;2023-04-25T12:07:57;9.20;99.90
12223;DHT22;6174;49.058;8.524;2023-04-25T12:10:24;9.30;99.90
12223;DHT22;6174;49.058;8.524;2023-04-25T12:12:52;9.40;99.90
12223;DHT22;6174;49.058;8.524;2023-04-25T12:15:24;9.40;99.90
12223;DHT22;6174;49.058;8.524;2023-04-25T12:17:53;9.60;99.90
12223;DHT22;6174;49.058;8.524;2023-04-25T12:20:24;9.60;99.90
12223;DHT22;6174;49.058;8.524;2023-04-25T12:22:53;9.50;99.90
12223;DHT22;6174;49.058;8.524;2023-04-25T12:25:36;9.40;99.90
12223;DHT22;6174;49.058;8.524;2023-04-25T12:28:11;9.40;99.90
12223;DHT22;6174;49.058;8.524;2023-04-25T12:30:55;9.30;99.90
12223;DHT22;6174;49.058;8.524;2023-04-25T12:33:25;9.40;99.90
12223;DHT22;6174;49.058;8.524;2023-04-25T12:35:52;9.60;99.90
12223;DHT22;6174;49.058;8.524;2023-04-25T12:38:23;9.70;99.90
12223;DHT22;6174;49.058;8.524;2023-04-25T12:40:50;9.80;99.90
12223;DHT22;6174;49.058;8.524;2023-04-25T12:43:17;9.90;99.90
12223;DHT22;6174;49.058;8.524;2023-04-25T12:45:44;10.00;99.90
12223;DHT22;6174;49.058;8.524;2023-04-25T12:48:11;10.00;99.90
12223;DHT22;6174;49.058;8.524;2023-04-25T12:50:39;10.00;99.90
12223;DHT22;6174;49.058;8.524;2023-04-25T12:53:06;10.00;99.90
12223;DHT22;6174;49.058;8.524;2023-04-25T12:55:33;9.80;99.90
12223;DHT22;6174;49.058;8.524;2023-04-25T12:58:00;9.70;99.90
12223;DHT22;6174;49.058;8.524;2023-04-25T13:00:28;9.50;99.90
12223;DHT22;6174;49.058;8.524;2023-04-25T13:02:55;9.50;99.90
12223;DHT22;6174;49.058;8.524;2023-04-25T13:05:22;9.50;99.90
12223;DHT22;6174;49.058;8.524;2023-04-25T13:07:50;9.60;99.90
12223;DHT22;6174;49.058;8.524;2023-04-25T13:10:16;9.60;99.90
12223;DHT22;6174;49.058;8.524;2023-04-25T13:12:43;9.70;99.90
12223;DHT22;6174;49.058;8.524;2023-04-25T13:15:11;9.70;99.90
12223;DHT22;6174;49.058;8.524;2023-04-25T13:17:37;9.70;99.90
12223;DHT22;6174;49.058;8.524;2023-04-25T13:20:05;9.80;99.90
12223;DHT22;6174;49.058;8.524;2023-04-25T13:22:34;9.80;99.90
12223;DHT22;6174;49.058;8.524;2023-04-25T13:25:04;9.90;99.90
12223;DHT22;6174;49.058;8.524;2023-04-25T13:27:32;10.00;99.90
12223;DHT22;6174;49.058;8.524;2023-04-25T13:29:59;10.10;99.90
12223;DHT22;6174;49.058;8.524;2023-04-25T13:32:26;10.20;99.90
12223;DHT22;6174;49.058;8.524;2023-04-25T13:34:53;10.10;99.90
12223;DHT22;6174;49.058;8.524;2023-04-25T13:37:21;10.10;99.90
12223;DHT22;6174;49.058;8.524;2023-04-25T13:39:49;10.10;99.90
12223;DHT22;6174;49.058;8.524;2023-04-25T13:42:17;10.20;99.90
12223;DHT22;6174;49.058;8.524;2023-04-25T13:44:44;10.20;99.90
12223;DHT22;6174;49.058;8.524;2023-04-25T13:47:11;10.30;99.90
12223;DHT22;6174;49.058;8.524;2023-04-25T13:49:38;10.30;99.90
12223;DHT22;6174;49.058;8.524;2023-04-25T13:52:04;10.40;99.90
12223;DHT22;6174;49.058;8.524;2023-04-25T13:54:31;10.40;99.90
12223;DHT22;6174;49.058;8.524;2023-04-25T13:56:58;10.50;99.90
12223;DHT22;6174;49.058;8.524;2023-04-25T13:59:27;10.60;99.90
12223;DHT22;6174;49.058;8.524;2023-04-25T14:01:54;10.60;99.90
12223;DHT22;6174;49.058;8.524;2023-04-25T14:04:20;10.70;99.90
12223;DHT22;6174;49.058;8.524;2023-04-25T14:06:47;10.80;99.90
12223;DHT22;6174;49.058;8.524;2023-04-25T14:09:14;10.90;99.90
12223;DHT22;6174;49.058;8.524;2023-04-25T14:11:41;10.90;99.90
12223;DHT22;6174;49.058;8.524;2023-04-25T14:14:07;10.90;99.90
12223;DHT22;6174;49.058;8.524;2023-04-25T14:16:35;10.90;99.90
12223;DHT22;6174;49.058;8.524;2023-04-25T14:19:02;10.90;99.90
12223;DHT22;6174;49.058;8.524;2023-04-25T14:21:29;10.90;99.90
12223;DHT22;6174;49.058;8.524;2023-04-25T14:23:57;10.90;99.90
12223;DHT22;6174;49.058;8.524;2023-04-25T14:26:24;11.10;99.90
12223;DHT22;6174;49.058;8.524;2023-04-25T14:28:51;11.20;99.90
12223;DHT22;6174;49.058;8.524;2023-04-25T14:31:18;11.30;99.90
12223;DHT22;6174;49.058;8.524;2023-04-25T14:33:46;11.20;99.90
12223;DHT22;6174;49.058;8.524;2023-04-25T14:36:13;11.20;99.90
12223;DHT22;6174;49.058;8.524;2023-04-25T14:38:40;11.10;99.90
12223;DHT22;6174;49.058;8.524;2023-04-25T14:41:07;10.90;99.90
12223;DHT22;6174;49.058;8.524;2023-04-25T14:43:34;10.80;99.90
12223;DHT22;6174;49.058;8.524;2023-04-25T14:46:01;10.80;99.90
12223;DHT22;6174;49.058;8.524;2023-04-25T14:48:28;10.70;99.90
12223;DHT22;6174;49.058;8.524;2023-04-25T14:50:57;10.70;99.90
12223;DHT22;6174;49.058;8.524;2023-04-25T14:53:23;10.60;99.90
12223;DHT22;6174;49.058;8.524;2023-04-25T14:55:51;10.60;99.90
12223;DHT22;6174;49.058;8.524;2023-04-25T14:58:17;10.60;99.90
12223;DHT22;6174;49.058;8.524;2023-04-25T15:00:45;10.60;99.90
12223;DHT22;6174;49.058;8.524;2023-04-25T15:03:12;10.60;99.90
12223;DHT22;6174;49.058;8.524;2023-04-25T15:05:39;10.70;99.90
12223;DHT22;6174;49.058;8.524;2023-04-25T15:08:08;10.80;99.90
12223;DHT22;6174;49.058;8.524;2023-04-25T15:10:35;10.90;99.90
12223;DHT22;6174;49.058;8.524;2023-04-25T15:13:03;10.90;99.90
12223;DHT22;6174;49.058;8.524;2023-04-25T15:15:30;10.90;99.90
12223;DHT22;6174;49.058;8.524;2023-04-25T15:17:57;11.00;99.90
12223;DHT22;6174;49.058;8.524;2023-04-25T15:20:24;11.00;99.90
12223;DHT22;6174;49.058;8.524;2023-04-25T15:22:51;10.90;99.90
12223;DHT22;6174;49.058;8.524;2023-04-25T15:25:19;10.90;99.90
12223;DHT22;6174;49.058;8.524;2023-04-25T15:27:46;10.90;99.90
12223;DHT22;6174;49.058;8.524;2023-04-25T15:30:15;10.90;99.90
12223;DHT22;6174;49.058;8.524;2023-04-25T15:32:42;10.90;99.90
12223;DHT22;6174;49.058;8.524;2023-04-25T15:35:09;10.80;99.90
12223;DHT22;6174;49.058;8.524;2023-04-25T15:37:36;10.70;99.90
12223;DHT22;6174;49.058;8.524;2023-04-25T15:40:05;10.80;99.90
12223;DHT22;6174;49.058;8.524;2023-04-25T15:42:35;10.70;99.90
12223;DHT22;6174;49.058;8.524;2023-04-25T15:45:03;10.80;99.90
12223;DHT22;6174;49.058;8.524;2023-04-25T15:47:30;10.80;99.90
12223;DHT22;6174;49.058;8.524;2023-04-25T15:49:56;10.60;99.90
12223;DHT22;6174;49.058;8.524;2023-04-25T15:52:23;10.60;99.90
12223;DHT22;6174;49.058;8.524;2023-04-25T15:54:50;10.20;99.90
12223;DHT22;6174;49.058;8.524;2023-04-25T15:57:17;9.70;99.90
12223;DHT22;6174;49.058;8.524;2023-04-25T15:59:45;9.30;99.90
12223;DHT22;6174;49.058;8.524;2023-04-25T16:02:13;8.80;99.90
12223;DHT22;6174;49.058;8.524;2023-04-25T16:04:39;8.60;99.90
12223;DHT22;6174;49.058;8.524;2023-04-25T16:07:07;8.60;99.90
12223;DHT22;6174;49.058;8.524;2023-04-25T16:09:33;8.60;99.90
12223;DHT22;6174;49.058;8.524;2023-04-25T16:12:00;8.60;99.90
12223;DHT22;6174;49.058;8.524;2023-04-25T16:14:27;8.60;99.90
12223;DHT22;6174;49.058;8.524;2023-04-25T16:16:55;8.60;99.90
12223;DHT22;6174;49.058;8.524;2023-04-25T16:19:22;8.50;99.90
12223;DHT22;6174;49.058;8.524;2023-04-25T16:21:49;8.50;99.90
12223;DHT22;6174;49.058;8.524;2023-04-25T16:24:16;8.50;99.90
12223;DHT22;6174;49.058;8.524;2023-04-25T16:26:43;8.50;99.90
12223;DHT22;6174;49.058;8.524;2023-04-25T16:29:10;8.40;99.90
12223;DHT22;6174;49.058;8.524;2023-04-25T16:31:39;8.40;99.90
12223;DHT22;6174;49.058;8.524;2023-04-25T16:34:07;8.50;99.90
12223;DHT22;6174;49.058;8.524;2023-04-25T16:36:34;8.40;99.90
12223;DHT22;6174;49.058;8.524;2023-04-25T16:39:01;8.40;99.90
12223;DHT22;6174;49.058;8.524;2023-04-25T16:41:28;8.40;99.90
12223;DHT22;6174;49.058;8.524;2023-04-25T16:43:55;8.40;99.90
12223;DHT22;6174;49.058;8.524;2023-04-25T16:46:22;8.40;99.90
12223;DHT22;6174;49.058;8.524;2023-04-25T16:48:48;8.40;99.90
12223;DHT22;6174;49.058;8.524;2023-04-25T16:51:16;8.30;99.90
12223;DHT22;6174;49.058;8.524;2023-04-25T16:53:44;8.40;99.90
12223;DHT22;6174;49.058;8.524;2023-04-25T16:56:11;8.40;99.90
12223;DHT22;6174;49.058;8.524;2023-04-25T16:58:37;8.40;99.90
12223;DHT22;6174;49.058;8.524;2023-04-25T17:01:05;8.50;99.90
12223;DHT22;6174;49.058;8.524;2023-04-25T17:03:31;8.50;99.90
12223;DHT22;6174;49.058;8.524;2023-04-25T17:05:58;8.60;99.90
12223;DHT22;6174;49.058;8.524;2023-04-25T17:08:27;8.60;99.90
12223;DHT22;6174;49.058;8.524;2023-04-25T17:10:54;8.60;99.90
12223;DHT22;6174;49.058;8.524;2023-04-25T17:13:21;8.60;99.90
12223;DHT22;6174;49.058;8.524;2023-04-25T17:15:48;8.70;99.90
12223;DHT22;6174;49.058;8.524;2023-04-25T17:18:15;8.70;99.90
12223;DHT22;6174;49.058;8.524;2023-04-25T17:20:42;8.60;99.90
12223;DHT22;6174;49.058;8.524;2023-04-25T17:23:09;8.70;99.90
12223;DHT22;6174;49.058;8.524;2023-04-25T17:25:38;8.70;99.90
12223;DHT22;6174;49.058;8.524;2023-04-25T17:28:05;8.70;99.90
12223;DHT22;6174;49.058;8.524;2023-04-25T17:30:31;8.60;99.90
12223;DHT22;6174;49.058;8.524;2023-04-25T17:32:59;8.70;99.90
12223;DHT22;6174;49.058;8.524;2023-04-25T17:35:27;8.70;99.90
12223;DHT22;6174;49.058;8.524;2023-04-25T17:37:54;8.60;99.90
12223;DHT22;6174;49.058;8.524;2023-04-25T17:40:21;8.60;99.90
12223;DHT22;6174;49.058;8.524;2023-04-25T17:42:49;8.60;99.90
12223;DHT22;6174;49.058;8.524;2023-04-25T17:45:16;8.60;99.90
12223;DHT22;6174;49.058;8.524;2023-04-25T17:47:43;8.70;99.90
12223;DHT22;6174;49.058;8.524;2023-04-25T17:50:10;8.70;99.90
12223;DHT22;6174;49.058;8.524;2023-04-25T17:52:37;8.70;99.90
12223;DHT22;6174;49.058;8.524;2023-04-25T17:55:04;8.70;99.90
12223;DHT22;6174;49.058;8.524;2023-04-25T17:57:31;8.70;99.90
12223;DHT22;6174;49.058;8.524;2023-04-25T17:59:59;8.70;99.90
12223;DHT22;6174;49.058;8.524;2023-04-25T18:02:26;8.70;99.90
12223;DHT22;6174;49.058;8.524;2023-04-25T18:04:53;8.70;99.90
12223;DHT22;6174;49.058;8.524;2023-04-25T18:07:20;8.70;99.90
12223;DHT22;6174;49.058;8.524;2023-04-25T18:09:47;8.70;99.90
12223;DHT22;6174;49.058;8.524;2023-04-25T18:12:14;8.70;99.90
12223;DHT22;6174;49.058;8.524;2023-04-25T18:14:42;8.60;99.90
12223;DHT22;6174;49.058;8.524;2023-04-25T18:17:11;8.60;99.90
12223;DHT22;6174;49.058;8.524;2023-04-25T18:19:39;8.60;99.90
12223;DHT22;6174;49.058;8.524;2023-04-25T18:22:05;8.60;99.90
12223;DHT22;6174;49.058;8.524;2023-04-25T18:24:32;8.60;99.90
12223;DHT22;6174;49.058;8.524;2023-04-25T18:26:59;8.60;99.90
12223;DHT22;6174;49.058;8.524;2023-04-25T18:29:27;8.50;99.90
12223;DHT22;6174;49.058;8.524;2023-04-25T18:31:54;8.50;99.90
12223;DHT22;6174;49.058;8.524;2023-04-25T18:34:22;8.40;99.90
12223;DHT22;6174;49.058;8.524;2023-04-25T18:36:49;8.40;99.90
12223;DHT22;6174;49.058;8.524;2023-04-25T18:39:17;8.40;99.90
12223;DHT22;6174;49.058;8.524;2023-04-25T18:41:43;8.40;99.90
12223;DHT22;6174;49.058;8.524;2023-04-25T18:44:10;8.40;99.90
12223;DHT22;6174;49.058;8.524;2023-04-25T18:46:37;8.50;99.90
12223;DHT22;6174;49.058;8.524;2023-04-25T18:49:08;8.50;99.90
12223;DHT22;6174;49.058;8.524;2023-04-25T18:51:36;8.60;99.90
12223;DHT22;6174;49.058;8.524;2023-04-25T18:54:03;8.50;99.90
12223;DHT22;6174;49.058;8.524;2023-04-25T18:56:32;8.50;99.90
12223;DHT22;6174;49.058;8.524;2023-04-25T18:58:59;8.60;99.90
12223;DHT22;6174;49.058;8.524;2023-04-25T19:01:26;8.50;99.90
12223;DHT22;6174;49.058;8.524;2023-04-25T19:03:52;8.50;99.90
12223;DHT22;6174;49.058;8.524;2023-04-25T19:06:21;8.40;99.90
12223;DHT22;6174;49.058;8.524;2023-04-25T19:08:50;8.50;99.90
12223;DHT22;6174;49.058;8.524;2023-04-25T19:11:17;8.50;99.90
12223;DHT22;6174;49.058;8.524;2023-04-25T19:13:45;8.50;99.90
12223;DHT22;6174;49.058;8.524;2023-04-25T19:16:12;8.40;99.90
12223;DHT22;6174;49.058;8.524;2023-04-25T19:18:39;8.40;99.90
12223;DHT22;6174;49.058;8.524;2023-04-25T19:21:05;8.30;99.90
12223;DHT22;6174;49.058;8.524;2023-04-25T19:23:33;8.30;99.90
12223;DHT22;6174;49.058;8.524;2023-04-25T19:26:01;8.30;99.90
12223;DHT22;6174;49.058;8.524;2023-04-25T19:28:29;8.30;99.90
12223;DHT22;6174;49.058;8.524;2023-04-25T19:30:56;8.30;99.90
12223;DHT22;6174;49.058;8.524;2023-04-25T19:33:24;8.30;99.90
12223;DHT22;6174;49.058;8.524;2023-04-25T19:35:51;8.20;99.90
12223;DHT22;6174;49.058;8.524;2023-04-25T19:38:17;8.30;99.90
12223;DHT22;6174;49.058;8.524;2023-04-25T19:40:44;8.30;99.90
12223;DHT22;6174;49.058;8.524;2023-04-25T19:43:12;8.30;99.90
12223;DHT22;6174;49.058;8.524;2023-04-25T19:45:39;8.30;99.90
12223;DHT22;6174;49.058;8.524;2023-04-25T19:48:06;8.30;99.90
12223;DHT22;6174;49.058;8.524;2023-04-25T19:50:34;8.20;99.90
12223;DHT22;6174;49.058;8.524;2023-04-25T19:53:02;8.20;99.90
12223;DHT22;6174;49.058;8.524;2023-04-25T19:55:28;8.30;99.90
12223;DHT22;6174;49.058;8.524;2023-04-25T19:57:55;8.30;99.90
12223;DHT22;6174;49.058;8.524;2023-04-25T20:00:23;8.30;99.90
12223;DHT22;6174;49.058;8.524;2023-04-25T20:02:51;8.30;99.90
12223;DHT22;6174;49.058;8.524;2023-04-25T20:05:18;8.30;99.90
12223;DHT22;6174;49.058;8.524;2023-04-25T20:07:44;8.30;99.90
12223;DHT22;6174;49.058;8.524;2023-04-25T20:10:11;8.30;99.90
12223;DHT22;6174;49.058;8.524;2023-04-25T20:12:40;8.40;99.90
12223;DHT22;6174;49.058;8.524;2023-04-25T20:15:07;8.40;99.90
12223;DHT22;6174;49.058;8.524;2023-04-25T20:17:37;8.40;99.90
12223;DHT22;6174;49.058;8.524;2023-04-25T20:20:05;8.40;99.90
12223;DHT22;6174;49.058;8.524;2023-04-25T20:22:32;8.40;99.90
12223;DHT22;6174;49.058;8.524;2023-04-25T20:25:02;8.40;99.90
12223;DHT22;6174;49.058;8.524;2023-04-25T20:27:30;8.40;99.90
12223;DHT22;6174;49.058;8.524;2023-04-25T20:29:56;8.40;99.90
12223;DHT22;6174;49.058;8.524;2023-04-25T20:32:27;8.40;99.90
12223;DHT22;6174;49.058;8.524;2023-04-25T20:34:57;8.40;99.90
12223;DHT22;6174;49.058;8.524;2023-04-25T20:37:24;8.40;99.90
12223;DHT22;6174;49.058;8.524;2023-04-25T20:39:51;8.40;99.90
12223;DHT22;6174;49.058;8.524;2023-04-25T20:42:18;8.40;99.90
12223;DHT22;6174;49.058;8.524;2023-04-25T20:44:45;8.40;99.90
12223;DHT22;6174;49.058;8.524;2023-04-25T20:47:13;8.40;99.90
12223;DHT22;6174;49.058;8.524;2023-04-25T20:49:41;8.40;99.90
12223;DHT22;6174;49.058;8.524;2023-04-25T20:52:09;8.40;99.90
12223;DHT22;6174;49.058;8.524;2023-04-25T20:54:35;8.30;99.90
12223;DHT22;6174;49.058;8.524;2023-04-25T20:57:02;8.30;99.90
12223;DHT22;6174;49.058;8.524;2023-04-25T20:59:30;8.30;99.90
12223;DHT22;6174;49.058;8.524;2023-04-25T21:01:58;8.40;99.90
12223;DHT22;6174;49.058;8.524;2023-04-25T21:04:25;8.40;99.90